sensor_id;sensor_type;location;lat;lon;timestamp;P1;durP1;ratioP1;P2;durP2;ratioP2
22632;SDS011;11483;55.828;37.488;2022-09-13T00:01:16;11.20;;;5.63;;
22632;SDS011;11483;55.828;37.488;2022-09-13T00:03:42;11.90;;;5.60;;
22632;SDS011;11483;55.828;37.488;2022-09-13T00:06:09;11.88;;;5.18;;
22632;SDS011;11483;55.828;37.488;2022-09-13T00:08:37;8.10;;;4.60;;
22632;SDS011;11483;55.828;37.488;2022-09-13T00:11:03;13.52;;;5.47;;
22632;SDS011;11483;55.828;37.488;2022-09-13T00:13:29;16.45;;;5.40;;
22632;SDS011;11483;55.828;37.488;2022-09-13T01:08:16;12.90;;;5.65;;
22632;SDS011;11483;55.828;37.488;2022-09-13T01:10:47;11.85;;;5.32;;
22632;SDS011;11483;55.828;37.488;2022-09-13T01:13:21;10.00;;;5.63;;
22632;SDS011;11483;55.828;37.488;2022-09-13T01:15:50;9.98;;;5.95;;
22632;SDS011;11483;55.828;37.488;2022-09-13T01:18:16;16.48;;;6.20;;
22632;SDS011;11483;55.828;37.488;2022-09-13T01:38:14;11.45;;;6.30;;
22632;SDS011;11483;55.828;37.488;2022-09-13T01:43:43;8.52;;;5.32;;
22632;SDS011;11483;55.828;37.488;2022-09-13T01:52:27;10.20;;;5.50;;
22632;SDS011;11483;55.828;37.488;2022-09-13T01:55:17;12.15;;;6.35;;
22632;SDS011;11483;55.828;37.488;2022-09-13T01:57:53;11.32;;;6.03;;
22632;SDS011;11483;55.828;37.488;2022-09-13T02:03:08;9.75;;;5.53;;
22632;SDS011;11483;55.828;37.488;2022-09-13T02:08:16;12.10;;;5.63;;
22632;SDS011;11483;55.828;37.488;2022-09-13T02:13:37;8.05;;;5.15;;
22632;SDS011;11483;55.828;37.488;2022-09-13T02:16:26;9.95;;;4.90;;
22632;SDS011;11483;55.828;37.488;2022-09-13T02:19:00;11.90;;;5.75;;
22632;SDS011;11483;55.828;37.488;2022-09-13T02:21:33;8.88;;;5.38;;
22632;SDS011;11483;55.828;37.488;2022-09-13T02:24:10;14.93;;;5.15;;
22632;SDS011;11483;55.828;37.488;2022-09-13T02:26:41;9.77;;;5.43;;
22632;SDS011;11483;55.828;37.488;2022-09-13T02:29:12;11.45;;;5.35;;
22632;SDS011;11483;55.828;37.488;2022-09-13T02:31:44;11.30;;;5.75;;
22632;SDS011;11483;55.828;37.488;2022-09-13T02:34:22;12.25;;;5.93;;
22632;SDS011;11483;55.828;37.488;2022-09-13T02:37:01;9.10;;;5.35;;
22632;SDS011;11483;55.828;37.488;2022-09-13T02:39:28;9.43;;;6.13;;
22632;SDS011;11483;55.828;37.488;2022-09-13T02:42:06;10.80;;;5.78;;
22632;SDS011;11483;55.828;37.488;2022-09-13T02:44:40;10.82;;;5.85;;
22632;SDS011;11483;55.828;37.488;2022-09-13T02:47:15;10.90;;;5.95;;
22632;SDS011;11483;55.828;37.488;2022-09-13T02:52:45;10.70;;;6.22;;
22632;SDS011;11483;55.828;37.488;2022-09-13T02:55:52;9.32;;;5.70;;
22632;SDS011;11483;55.828;37.488;2022-09-13T02:59:07;10.60;;;6.13;;
22632;SDS011;11483;55.828;37.488;2022-09-13T03:01:44;13.35;;;6.80;;
22632;SDS011;11483;55.828;37.488;2022-09-13T03:04:14;20.13;;;7.63;;
22632;SDS011;11483;55.828;37.488;2022-09-13T03:06:40;18.92;;;7.38;;
22632;SDS011;11483;55.828;37.488;2022-09-13T03:09:06;14.75;;;7.90;;
22632;SDS011;11483;55.828;37.488;2022-09-13T03:28:24;11.55;;;6.13;;
22632;SDS011;11483;55.828;37.488;2022-09-13T03:34:17;10.02;;;5.70;;
22632;SDS011;11483;55.828;37.488;2022-09-13T03:37:02;13.65;;;5.80;;
22632;SDS011;11483;55.828;37.488;2022-09-13T03:39:42;10.90;;;5.78;;
22632;SDS011;11483;55.828;37.488;2022-09-13T03:42:23;11.32;;;5.63;;
22632;SDS011;11483;55.828;37.488;2022-09-13T03:44:58;10.55;;;5.53;;
22632;SDS011;11483;55.828;37.488;2022-09-13T03:47:52;10.40;;;5.88;;
22632;SDS011;11483;55.828;37.488;2022-09-13T03:50:20;11.20;;;6.28;;
22632;SDS011;11483;55.828;37.488;2022-09-13T03:52:58;11.90;;;6.20;;
22632;SDS011;11483;55.828;37.488;2022-09-13T03:55:28;12.23;;;6.55;;
22632;SDS011;11483;55.828;37.488;2022-09-13T03:57:56;10.57;;;6.47;;
22632;SDS011;11483;55.828;37.488;2022-09-13T04:00:23;16.10;;;6.20;;
22632;SDS011;11483;55.828;37.488;2022-09-13T04:02:49;10.77;;;6.07;;
22632;SDS011;11483;55.828;37.488;2022-09-13T04:05:15;11.00;;;5.65;;
22632;SDS011;11483;55.828;37.488;2022-09-13T04:07:42;11.23;;;6.13;;
22632;SDS011;11483;55.828;37.488;2022-09-13T04:10:07;12.15;;;5.90;;
22632;SDS011;11483;55.828;37.488;2022-09-13T04:12:34;10.13;;;6.00;;
22632;SDS011;11483;55.828;37.488;2022-09-13T04:15:00;9.88;;;6.15;;
22632;SDS011;11483;55.828;37.488;2022-09-13T04:17:26;18.70;;;6.30;;
22632;SDS011;11483;55.828;37.488;2022-09-13T04:19:52;17.15;;;6.63;;
22632;SDS011;11483;55.828;37.488;2022-09-13T04:22:18;15.27;;;6.72;;
22632;SDS011;11483;55.828;37.488;2022-09-13T04:24:44;15.27;;;6.80;;
22632;SDS011;11483;55.828;37.488;2022-09-13T04:27:10;17.15;;;6.57;;
22632;SDS011;11483;55.828;37.488;2022-09-13T04:29:36;12.40;;;6.75;;
22632;SDS011;11483;55.828;37.488;2022-09-13T04:32:02;11.88;;;6.28;;
22632;SDS011;11483;55.828;37.488;2022-09-13T04:34:28;14.82;;;6.55;;
22632;SDS011;11483;55.828;37.488;2022-09-13T04:36:54;11.57;;;6.38;;
22632;SDS011;11483;55.828;37.488;2022-09-13T04:39:20;11.20;;;6.70;;
22632;SDS011;11483;55.828;37.488;2022-09-13T04:41:47;11.77;;;6.20;;
22632;SDS011;11483;55.828;37.488;2022-09-13T04:44:16;15.63;;;7.38;;
22632;SDS011;11483;55.828;37.488;2022-09-13T04:46:42;11.38;;;6.45;;
22632;SDS011;11483;55.828;37.488;2022-09-13T04:49:12;13.57;;;6.80;;
22632;SDS011;11483;55.828;37.488;2022-09-13T04:51:38;15.02;;;7.32;;
22632;SDS011;11483;55.828;37.488;2022-09-13T04:54:04;14.95;;;7.40;;
22632;SDS011;11483;55.828;37.488;2022-09-13T04:56:30;16.67;;;7.07;;
22632;SDS011;11483;55.828;37.488;2022-09-13T04:58:57;14.07;;;6.50;;
22632;SDS011;11483;55.828;37.488;2022-09-13T05:01:23;16.27;;;6.97;;
22632;SDS011;11483;55.828;37.488;2022-09-13T05:03:49;22.30;;;7.50;;
22632;SDS011;11483;55.828;37.488;2022-09-13T05:06:17;16.05;;;6.68;;
22632;SDS011;11483;55.828;37.488;2022-09-13T05:08:44;16.25;;;7.53;;
22632;SDS011;11483;55.828;37.488;2022-09-13T05:11:14;14.88;;;6.55;;
22632;SDS011;11483;55.828;37.488;2022-09-13T05:13:40;16.70;;;7.10;;
22632;SDS011;11483;55.828;37.488;2022-09-13T05:16:06;15.23;;;6.75;;
22632;SDS011;11483;55.828;37.488;2022-09-13T05:18:34;15.32;;;7.60;;
22632;SDS011;11483;55.828;37.488;2022-09-13T05:21:01;13.82;;;7.43;;
22632;SDS011;11483;55.828;37.488;2022-09-13T05:23:29;21.85;;;7.03;;
22632;SDS011;11483;55.828;37.488;2022-09-13T05:26:00;20.58;;;7.85;;
22632;SDS011;11483;55.828;37.488;2022-09-13T05:28:28;14.13;;;6.80;;
22632;SDS011;11483;55.828;37.488;2022-09-13T05:30:56;24.98;;;7.50;;
22632;SDS011;11483;55.828;37.488;2022-09-13T05:33:23;19.13;;;7.43;;
22632;SDS011;11483;55.828;37.488;2022-09-13T05:35:50;13.95;;;6.75;;
22632;SDS011;11483;55.828;37.488;2022-09-13T05:38:16;13.15;;;7.03;;
22632;SDS011;11483;55.828;37.488;2022-09-13T05:40:42;15.38;;;6.70;;
22632;SDS011;11483;55.828;37.488;2022-09-13T05:43:08;14.35;;;6.90;;
22632;SDS011;11483;55.828;37.488;2022-09-13T05:45:34;15.73;;;7.88;;
22632;SDS011;11483;55.828;37.488;2022-09-13T05:48:00;14.75;;;7.07;;
22632;SDS011;11483;55.828;37.488;2022-09-13T05:50:26;22.85;;;7.07;;
22632;SDS011;11483;55.828;37.488;2022-09-13T05:52:52;19.67;;;7.50;;
22632;SDS011;11483;55.828;37.488;2022-09-13T05:55:18;16.20;;;7.50;;
22632;SDS011;11483;55.828;37.488;2022-09-13T05:57:45;20.33;;;7.45;;
22632;SDS011;11483;55.828;37.488;2022-09-13T06:00:12;14.07;;;7.35;;
22632;SDS011;11483;55.828;37.488;2022-09-13T06:02:38;16.70;;;6.95;;
22632;SDS011;11483;55.828;37.488;2022-09-13T06:05:05;16.65;;;7.80;;
22632;SDS011;11483;55.828;37.488;2022-09-13T06:07:32;12.02;;;6.63;;
22632;SDS011;11483;55.828;37.488;2022-09-13T06:09:58;14.55;;;6.97;;
22632;SDS011;11483;55.828;37.488;2022-09-13T06:41:37;17.98;;;7.10;;
22632;SDS011;11483;55.828;37.488;2022-09-13T06:44:03;15.27;;;6.88;;
22632;SDS011;11483;55.828;37.488;2022-09-13T06:46:33;19.90;;;7.32;;
22632;SDS011;11483;55.828;37.488;2022-09-13T06:49:00;14.32;;;6.68;;
22632;SDS011;11483;55.828;37.488;2022-09-13T06:51:28;13.73;;;6.85;;
22632;SDS011;11483;55.828;37.488;2022-09-13T06:53:54;17.05;;;6.78;;
22632;SDS011;11483;55.828;37.488;2022-09-13T06:56:28;14.80;;;7.38;;
22632;SDS011;11483;55.828;37.488;2022-09-13T06:58:57;11.23;;;6.97;;
22632;SDS011;11483;55.828;37.488;2022-09-13T07:04:02;14.38;;;6.55;;
22632;SDS011;11483;55.828;37.488;2022-09-13T07:06:31;14.52;;;7.07;;
22632;SDS011;11483;55.828;37.488;2022-09-13T07:09:00;14.82;;;6.30;;
22632;SDS011;11483;55.828;37.488;2022-09-13T07:11:30;18.13;;;6.70;;
22632;SDS011;11483;55.828;37.488;2022-09-13T07:13:58;13.43;;;6.72;;
22632;SDS011;11483;55.828;37.488;2022-09-13T07:16:29;11.98;;;6.68;;
22632;SDS011;11483;55.828;37.488;2022-09-13T07:18:56;15.48;;;6.05;;
22632;SDS011;11483;55.828;37.488;2022-09-13T07:21:24;15.63;;;6.10;;
22632;SDS011;11483;55.828;37.488;2022-09-13T07:23:51;15.00;;;5.65;;
22632;SDS011;11483;55.828;37.488;2022-09-13T07:26:18;13.63;;;6.15;;
22632;SDS011;11483;55.828;37.488;2022-09-13T07:28:45;10.95;;;6.05;;
22632;SDS011;11483;55.828;37.488;2022-09-13T07:31:22;12.63;;;6.10;;
22632;SDS011;11483;55.828;37.488;2022-09-13T07:34:13;15.18;;;6.20;;
22632;SDS011;11483;55.828;37.488;2022-09-13T07:36:41;16.83;;;6.22;;
22632;SDS011;11483;55.828;37.488;2022-09-13T07:39:07;22.00;;;6.23;;
22632;SDS011;11483;55.828;37.488;2022-09-13T07:41:33;18.77;;;5.88;;
22632;SDS011;11483;55.828;37.488;2022-09-13T07:44:01;17.05;;;5.95;;
22632;SDS011;11483;55.828;37.488;2022-09-13T07:46:29;11.05;;;5.07;;
22632;SDS011;11483;55.828;37.488;2022-09-13T08:03:49;16.60;;;5.20;;
22632;SDS011;11483;55.828;37.488;2022-09-13T08:33:34;7.57;;;2.90;;
22632;SDS011;11483;55.828;37.488;2022-09-13T08:36:01;6.35;;;2.95;;
22632;SDS011;11483;55.828;37.488;2022-09-13T08:38:28;12.57;;;3.08;;
22632;SDS011;11483;55.828;37.488;2022-09-13T08:53:53;6.95;;;2.95;;
22632;SDS011;11483;55.828;37.488;2022-09-13T08:56:40;9.27;;;2.83;;
22632;SDS011;11483;55.828;37.488;2022-09-13T08:59:36;11.70;;;3.33;;
22632;SDS011;11483;55.828;37.488;2022-09-13T09:05:12;5.93;;;3.08;;
22632;SDS011;11483;55.828;37.488;2022-09-13T09:07:45;3.58;;;2.67;;
22632;SDS011;11483;55.828;37.488;2022-09-13T09:10:28;6.75;;;3.20;;
22632;SDS011;11483;55.828;37.488;2022-09-13T09:13:12;8.55;;;3.20;;
22632;SDS011;11483;55.828;37.488;2022-09-13T09:15:48;6.90;;;3.00;;
22632;SDS011;11483;55.828;37.488;2022-09-13T09:18:18;6.22;;;2.60;;
22632;SDS011;11483;55.828;37.488;2022-09-13T09:20:52;9.05;;;2.67;;
22632;SDS011;11483;55.828;37.488;2022-09-13T09:26:25;3.97;;;2.70;;
22632;SDS011;11483;55.828;37.488;2022-09-13T09:28:55;8.82;;;2.42;;
22632;SDS011;11483;55.828;37.488;2022-09-13T09:37:16;11.23;;;3.53;;
22632;SDS011;11483;55.828;37.488;2022-09-13T09:39:48;6.13;;;2.38;;
22632;SDS011;11483;55.828;37.488;2022-09-13T09:42:18;9.35;;;2.17;;
22632;SDS011;11483;55.828;37.488;2022-09-13T09:44:55;5.85;;;2.20;;
22632;SDS011;11483;55.828;37.488;2022-09-13T09:47:27;6.05;;;2.30;;
22632;SDS011;11483;55.828;37.488;2022-09-13T09:50:09;7.73;;;2.30;;
22632;SDS011;11483;55.828;37.488;2022-09-13T09:58:03;7.32;;;2.45;;
22632;SDS011;11483;55.828;37.488;2022-09-13T10:00:48;4.35;;;2.00;;
22632;SDS011;11483;55.828;37.488;2022-09-13T10:03:17;10.30;;;2.13;;
22632;SDS011;11483;55.828;37.488;2022-09-13T10:06:11;6.00;;;2.10;;
22632;SDS011;11483;55.828;37.488;2022-09-13T10:08:43;3.97;;;2.08;;
22632;SDS011;11483;55.828;37.488;2022-09-13T10:11:36;3.63;;;2.45;;
22632;SDS011;11483;55.828;37.488;2022-09-13T10:14:39;7.07;;;2.35;;
22632;SDS011;11483;55.828;37.488;2022-09-13T10:19:57;5.27;;;2.67;;
22632;SDS011;11483;55.828;37.488;2022-09-13T10:22:30;4.32;;;2.63;;
22632;SDS011;11483;55.828;37.488;2022-09-13T10:25:13;4.00;;;2.30;;
22632;SDS011;11483;55.828;37.488;2022-09-13T10:27:57;6.63;;;2.35;;
22632;SDS011;11483;55.828;37.488;2022-09-13T10:33:01;6.72;;;2.28;;
22632;SDS011;11483;55.828;37.488;2022-09-13T10:35:28;6.20;;;2.50;;
22632;SDS011;11483;55.828;37.488;2022-09-13T10:37:55;8.43;;;2.50;;
22632;SDS011;11483;55.828;37.488;2022-09-13T10:40:31;7.40;;;2.67;;
22632;SDS011;11483;55.828;37.488;2022-09-13T10:42:58;10.30;;;2.30;;
22632;SDS011;11483;55.828;37.488;2022-09-13T10:45:28;5.63;;;2.72;;
22632;SDS011;11483;55.828;37.488;2022-09-13T10:48:03;4.80;;;2.63;;
22632;SDS011;11483;55.828;37.488;2022-09-13T10:50:36;8.27;;;2.47;;
22632;SDS011;11483;55.828;37.488;2022-09-13T10:53:02;8.15;;;2.33;;
22632;SDS011;11483;55.828;37.488;2022-09-13T10:55:36;4.18;;;2.05;;
22632;SDS011;11483;55.828;37.488;2022-09-13T11:00:42;10.18;;;1.98;;
22632;SDS011;11483;55.828;37.488;2022-09-13T11:08:55;5.23;;;2.20;;
22632;SDS011;11483;55.828;37.488;2022-09-13T11:39:30;7.03;;;2.25;;
22632;SDS011;11483;55.828;37.488;2022-09-13T11:53:12;8.02;;;2.47;;
22632;SDS011;11483;55.828;37.488;2022-09-13T11:55:46;6.75;;;2.80;;
22632;SDS011;11483;55.828;37.488;2022-09-13T11:58:23;7.73;;;2.63;;
22632;SDS011;11483;55.828;37.488;2022-09-13T12:00:51;6.40;;;2.50;;
22632;SDS011;11483;55.828;37.488;2022-09-13T12:06:29;6.32;;;2.83;;
22632;SDS011;11483;55.828;37.488;2022-09-13T12:09:12;9.10;;;3.45;;
22632;SDS011;11483;55.828;37.488;2022-09-13T12:12:12;13.13;;;3.65;;
22632;SDS011;11483;55.828;37.488;2022-09-13T12:14:58;8.27;;;2.85;;
22632;SDS011;11483;55.828;37.488;2022-09-13T12:17:36;9.95;;;2.78;;
22632;SDS011;11483;55.828;37.488;2022-09-13T12:20:05;9.98;;;3.13;;
22632;SDS011;11483;55.828;37.488;2022-09-13T12:22:38;9.20;;;2.72;;
22632;SDS011;11483;55.828;37.488;2022-09-13T12:25:11;8.47;;;2.87;;
22632;SDS011;11483;55.828;37.488;2022-09-13T12:27:51;6.73;;;2.43;;
22632;SDS011;11483;55.828;37.488;2022-09-13T12:30:33;9.85;;;2.75;;
22632;SDS011;11483;55.828;37.488;2022-09-13T12:33:16;10.23;;;2.75;;
22632;SDS011;11483;55.828;37.488;2022-09-13T12:35:46;5.90;;;2.57;;
22632;SDS011;11483;55.828;37.488;2022-09-13T12:38:21;6.45;;;2.40;;
22632;SDS011;11483;55.828;37.488;2022-09-13T12:41:14;9.90;;;2.55;;
22632;SDS011;11483;55.828;37.488;2022-09-13T12:52:21;11.60;;;2.80;;
22632;SDS011;11483;55.828;37.488;2022-09-13T13:02:50;9.67;;;2.70;;
22632;SDS011;11483;55.828;37.488;2022-09-13T13:05:25;7.40;;;2.30;;
22632;SDS011;11483;55.828;37.488;2022-09-13T13:11:06;5.70;;;2.20;;
22632;SDS011;11483;55.828;37.488;2022-09-13T13:13:38;11.27;;;2.55;;
22632;SDS011;11483;55.828;37.488;2022-09-13T13:19:02;7.10;;;2.10;;
22632;SDS011;11483;55.828;37.488;2022-09-13T13:21:34;8.60;;;2.22;;
22632;SDS011;11483;55.828;37.488;2022-09-13T13:26:55;7.70;;;2.25;;
22632;SDS011;11483;55.828;37.488;2022-09-13T13:36:48;7.95;;;2.00;;
22632;SDS011;11483;55.828;37.488;2022-09-13T13:41:58;7.03;;;2.10;;
22632;SDS011;11483;55.828;37.488;2022-09-13T13:57:44;6.45;;;2.10;;
22632;SDS011;11483;55.828;37.488;2022-09-13T14:00:16;17.90;;;2.00;;
22632;SDS011;11483;55.828;37.488;2022-09-13T14:05:21;7.30;;;2.20;;
22632;SDS011;11483;55.828;37.488;2022-09-13T14:13:47;9.70;;;2.13;;
22632;SDS011;11483;55.828;37.488;2022-09-13T14:26:47;5.65;;;2.00;;
22632;SDS011;11483;55.828;37.488;2022-09-13T14:29:17;11.50;;;3.40;;
22632;SDS011;11483;55.828;37.488;2022-09-13T14:31:45;4.47;;;2.08;;
22632;SDS011;11483;55.828;37.488;2022-09-13T14:34:20;4.10;;;2.15;;
22632;SDS011;11483;55.828;37.488;2022-09-13T14:36:52;2.78;;;1.60;;
22632;SDS011;11483;55.828;37.488;2022-09-13T14:39:19;7.22;;;2.33;;
22632;SDS011;11483;55.828;37.488;2022-09-13T14:41:45;6.22;;;2.35;;
22632;SDS011;11483;55.828;37.488;2022-09-13T14:46:49;5.63;;;2.13;;
22632;SDS011;11483;55.828;37.488;2022-09-13T14:49:40;3.47;;;2.20;;
22632;SDS011;11483;55.828;37.488;2022-09-13T14:52:09;4.60;;;2.13;;
22632;SDS011;11483;55.828;37.488;2022-09-13T14:54:45;7.40;;;2.10;;
22632;SDS011;11483;55.828;37.488;2022-09-13T15:00:05;5.07;;;2.50;;
22632;SDS011;11483;55.828;37.488;2022-09-13T15:02:42;3.33;;;2.20;;
22632;SDS011;11483;55.828;37.488;2022-09-13T15:05:16;4.95;;;2.00;;
22632;SDS011;11483;55.828;37.488;2022-09-13T15:07:44;11.55;;;2.03;;
22632;SDS011;11483;55.828;37.488;2022-09-13T15:12:48;8.88;;;2.40;;
22632;SDS011;11483;55.828;37.488;2022-09-13T15:15:20;4.93;;;2.17;;
22632;SDS011;11483;55.828;37.488;2022-09-13T15:17:51;4.78;;;2.17;;
22632;SDS011;11483;55.828;37.488;2022-09-13T15:20:27;7.03;;;2.25;;
22632;SDS011;11483;55.828;37.488;2022-09-13T15:23:13;2.38;;;2.10;;
22632;SDS011;11483;55.828;37.488;2022-09-13T15:25:41;4.25;;;2.10;;
22632;SDS011;11483;55.828;37.488;2022-09-13T15:28:21;7.85;;;1.90;;
22632;SDS011;11483;55.828;37.488;2022-09-13T15:30:49;10.00;;;2.50;;
22632;SDS011;11483;55.828;37.488;2022-09-13T15:33:22;3.13;;;1.70;;
22632;SDS011;11483;55.828;37.488;2022-09-13T15:38:54;5.05;;;2.33;;
22632;SDS011;11483;55.828;37.488;2022-09-13T15:41:27;10.80;;;2.42;;
22632;SDS011;11483;55.828;37.488;2022-09-13T15:43:57;4.38;;;2.40;;
22632;SDS011;11483;55.828;37.488;2022-09-13T15:46:24;12.80;;;2.60;;
22632;SDS011;11483;55.828;37.488;2022-09-13T15:49:13;10.05;;;2.58;;
22632;SDS011;11483;55.828;37.488;2022-09-13T15:51:41;4.28;;;2.55;;
22632;SDS011;11483;55.828;37.488;2022-09-13T15:54:11;6.65;;;2.38;;
22632;SDS011;11483;55.828;37.488;2022-09-13T15:56:40;7.85;;;2.70;;
22632;SDS011;11483;55.828;37.488;2022-09-13T15:59:14;8.07;;;2.50;;
22632;SDS011;11483;55.828;37.488;2022-09-13T16:01:42;6.50;;;2.80;;
22632;SDS011;11483;55.828;37.488;2022-09-13T16:04:10;5.43;;;2.05;;
22632;SDS011;11483;55.828;37.488;2022-09-13T16:06:36;4.97;;;2.20;;
22632;SDS011;11483;55.828;37.488;2022-09-13T16:09:16;7.32;;;3.20;;
22632;SDS011;11483;55.828;37.488;2022-09-13T16:11:44;5.70;;;2.50;;
22632;SDS011;11483;55.828;37.488;2022-09-13T16:14:11;13.95;;;2.88;;
22632;SDS011;11483;55.828;37.488;2022-09-13T16:16:38;3.50;;;2.30;;
22632;SDS011;11483;55.828;37.488;2022-09-13T16:19:04;9.38;;;2.53;;
22632;SDS011;11483;55.828;37.488;2022-09-13T16:21:30;8.68;;;2.60;;
22632;SDS011;11483;55.828;37.488;2022-09-13T16:23:56;5.45;;;2.00;;
22632;SDS011;11483;55.828;37.488;2022-09-13T16:26:22;9.13;;;2.58;;
22632;SDS011;11483;55.828;37.488;2022-09-13T16:28:48;6.68;;;2.63;;
22632;SDS011;11483;55.828;37.488;2022-09-13T16:31:14;6.90;;;2.80;;
22632;SDS011;11483;55.828;37.488;2022-09-13T16:33:40;4.97;;;2.70;;
22632;SDS011;11483;55.828;37.488;2022-09-13T16:36:09;5.75;;;2.40;;
22632;SDS011;11483;55.828;37.488;2022-09-13T16:38:37;13.02;;;2.80;;
22632;SDS011;11483;55.828;37.488;2022-09-13T16:41:06;9.27;;;2.50;;
22632;SDS011;11483;55.828;37.488;2022-09-13T16:43:32;4.07;;;2.75;;
22632;SDS011;11483;55.828;37.488;2022-09-13T16:45:58;4.03;;;2.47;;
22632;SDS011;11483;55.828;37.488;2022-09-13T16:48:29;7.50;;;3.20;;
22632;SDS011;11483;55.828;37.488;2022-09-13T16:51:00;6.40;;;3.00;;
22632;SDS011;11483;55.828;37.488;2022-09-13T16:53:29;11.10;;;2.83;;
22632;SDS011;11483;55.828;37.488;2022-09-13T16:56:13;7.03;;;2.97;;
22632;SDS011;11483;55.828;37.488;2022-09-13T16:58:42;9.73;;;2.83;;
22632;SDS011;11483;55.828;37.488;2022-09-13T17:01:13;3.72;;;2.75;;
22632;SDS011;11483;55.828;37.488;2022-09-13T17:03:40;5.93;;;3.38;;
22632;SDS011;11483;55.828;37.488;2022-09-13T17:06:12;9.35;;;3.10;;
22632;SDS011;11483;55.828;37.488;2022-09-13T17:08:41;8.77;;;3.20;;
22632;SDS011;11483;55.828;37.488;2022-09-13T17:11:12;5.40;;;3.10;;
22632;SDS011;11483;55.828;37.488;2022-09-13T17:13:39;8.50;;;3.20;;
22632;SDS011;11483;55.828;37.488;2022-09-13T17:16:06;6.45;;;3.13;;
22632;SDS011;11483;55.828;37.488;2022-09-13T17:18:43;5.43;;;3.20;;
22632;SDS011;11483;55.828;37.488;2022-09-13T17:21:09;6.05;;;2.85;;
22632;SDS011;11483;55.828;37.488;2022-09-13T17:23:35;8.00;;;3.42;;
22632;SDS011;11483;55.828;37.488;2022-09-13T17:26:01;5.72;;;2.83;;
22632;SDS011;11483;55.828;37.488;2022-09-13T17:28:27;6.93;;;3.22;;
22632;SDS011;11483;55.828;37.488;2022-09-13T17:30:53;7.90;;;3.58;;
22632;SDS011;11483;55.828;37.488;2022-09-13T17:33:19;7.28;;;3.53;;
22632;SDS011;11483;55.828;37.488;2022-09-13T17:35:45;4.38;;;3.38;;
22632;SDS011;11483;55.828;37.488;2022-09-13T17:38:11;10.95;;;3.35;;
22632;SDS011;11483;55.828;37.488;2022-09-13T17:40:39;8.20;;;3.42;;
22632;SDS011;11483;55.828;37.488;2022-09-13T17:43:05;3.45;;;2.88;;
22632;SDS011;11483;55.828;37.488;2022-09-13T17:45:32;6.13;;;3.10;;
22632;SDS011;11483;55.828;37.488;2022-09-13T17:48:13;6.65;;;3.20;;
22632;SDS011;11483;55.828;37.488;2022-09-13T17:50:40;8.02;;;3.35;;
22632;SDS011;11483;55.828;37.488;2022-09-13T17:53:17;9.95;;;3.13;;
22632;SDS011;11483;55.828;37.488;2022-09-13T17:55:47;12.35;;;3.55;;
22632;SDS011;11483;55.828;37.488;2022-09-13T17:58:14;10.18;;;3.45;;
22632;SDS011;11483;55.828;37.488;2022-09-13T18:00:43;10.20;;;3.78;;
22632;SDS011;11483;55.828;37.488;2022-09-13T18:03:09;12.85;;;3.70;;
22632;SDS011;11483;55.828;37.488;2022-09-13T18:05:35;8.00;;;3.22;;
22632;SDS011;11483;55.828;37.488;2022-09-13T18:08:01;4.70;;;3.05;;
22632;SDS011;11483;55.828;37.488;2022-09-13T18:10:28;9.18;;;3.47;;
22632;SDS011;11483;55.828;37.488;2022-09-13T18:12:54;6.38;;;3.30;;
22632;SDS011;11483;55.828;37.488;2022-09-13T18:15:20;7.25;;;3.50;;
22632;SDS011;11483;55.828;37.488;2022-09-13T18:17:46;5.57;;;3.03;;
22632;SDS011;11483;55.828;37.488;2022-09-13T18:20:11;5.10;;;3.45;;
22632;SDS011;11483;55.828;37.488;2022-09-13T18:22:37;7.72;;;3.75;;
22632;SDS011;11483;55.828;37.488;2022-09-13T18:25:03;4.85;;;3.30;;
22632;SDS011;11483;55.828;37.488;2022-09-13T18:27:30;9.77;;;3.33;;
22632;SDS011;11483;55.828;37.488;2022-09-13T18:29:56;15.07;;;4.22;;
22632;SDS011;11483;55.828;37.488;2022-09-13T18:32:23;5.75;;;3.70;;
22632;SDS011;11483;55.828;37.488;2022-09-13T18:34:49;5.38;;;3.92;;
22632;SDS011;11483;55.828;37.488;2022-09-13T18:37:37;12.30;;;3.80;;
22632;SDS011;11483;55.828;37.488;2022-09-13T18:40:04;10.60;;;4.15;;
22632;SDS011;11483;55.828;37.488;2022-09-13T18:42:32;6.57;;;3.80;;
22632;SDS011;11483;55.828;37.488;2022-09-13T18:44:57;5.47;;;3.42;;
22632;SDS011;11483;55.828;37.488;2022-09-13T18:47:23;10.48;;;3.80;;
22632;SDS011;11483;55.828;37.488;2022-09-13T18:49:49;7.47;;;4.28;;
22632;SDS011;11483;55.828;37.488;2022-09-13T18:52:15;9.63;;;3.70;;
22632;SDS011;11483;55.828;37.488;2022-09-13T18:54:41;9.43;;;4.40;;
22632;SDS011;11483;55.828;37.488;2022-09-13T18:57:07;6.60;;;3.95;;
22632;SDS011;11483;55.828;37.488;2022-09-13T18:59:34;7.88;;;4.28;;
22632;SDS011;11483;55.828;37.488;2022-09-13T19:02:00;10.20;;;4.72;;
22632;SDS011;11483;55.828;37.488;2022-09-13T19:04:26;6.80;;;4.82;;
22632;SDS011;11483;55.828;37.488;2022-09-13T19:06:52;8.48;;;4.65;;
22632;SDS011;11483;55.828;37.488;2022-09-13T19:09:20;8.55;;;4.63;;
22632;SDS011;11483;55.828;37.488;2022-09-13T19:11:47;8.82;;;4.75;;
22632;SDS011;11483;55.828;37.488;2022-09-13T19:14:16;7.07;;;4.40;;
22632;SDS011;11483;55.828;37.488;2022-09-13T19:16:42;9.05;;;4.53;;
22632;SDS011;11483;55.828;37.488;2022-09-13T19:19:08;6.25;;;4.28;;
22632;SDS011;11483;55.828;37.488;2022-09-13T19:21:34;10.88;;;4.75;;
22632;SDS011;11483;55.828;37.488;2022-09-13T19:24:00;6.78;;;4.55;;
22632;SDS011;11483;55.828;37.488;2022-09-13T19:26:27;7.10;;;4.80;;
22632;SDS011;11483;55.828;37.488;2022-09-13T19:28:56;8.20;;;4.53;;
22632;SDS011;11483;55.828;37.488;2022-09-13T19:31:27;5.50;;;4.13;;
22632;SDS011;11483;55.828;37.488;2022-09-13T19:33:54;11.02;;;4.72;;
22632;SDS011;11483;55.828;37.488;2022-09-13T19:36:22;8.40;;;4.57;;
22632;SDS011;11483;55.828;37.488;2022-09-13T19:38:49;8.23;;;4.72;;
22632;SDS011;11483;55.828;37.488;2022-09-13T19:41:16;8.88;;;4.78;;
22632;SDS011;11483;55.828;37.488;2022-09-13T19:43:43;6.38;;;4.13;;
22632;SDS011;11483;55.828;37.488;2022-09-13T19:46:21;6.97;;;4.30;;
22632;SDS011;11483;55.828;37.488;2022-09-13T19:48:50;9.90;;;4.57;;
22632;SDS011;11483;55.828;37.488;2022-09-13T19:51:27;5.78;;;4.50;;
22632;SDS011;11483;55.828;37.488;2022-09-13T19:53:58;7.25;;;4.75;;
22632;SDS011;11483;55.828;37.488;2022-09-13T19:56:26;6.95;;;4.53;;
22632;SDS011;11483;55.828;37.488;2022-09-13T19:58:54;9.05;;;4.65;;
22632;SDS011;11483;55.828;37.488;2022-09-13T20:01:21;9.77;;;4.80;;
22632;SDS011;11483;55.828;37.488;2022-09-13T20:03:50;9.32;;;4.30;;
22632;SDS011;11483;55.828;37.488;2022-09-13T20:06:16;6.97;;;4.13;;
22632;SDS011;11483;55.828;37.488;2022-09-13T20:08:42;10.52;;;4.82;;
22632;SDS011;11483;55.828;37.488;2022-09-13T20:11:09;7.93;;;4.43;;
22632;SDS011;11483;55.828;37.488;2022-09-13T20:13:37;11.65;;;4.80;;
22632;SDS011;11483;55.828;37.488;2022-09-13T20:18:36;10.98;;;4.88;;
22632;SDS011;11483;55.828;37.488;2022-09-13T20:21:06;9.00;;;4.60;;
22632;SDS011;11483;55.828;37.488;2022-09-13T20:23:34;7.03;;;4.30;;
22632;SDS011;11483;55.828;37.488;2022-09-13T20:26:01;8.20;;;4.63;;
22632;SDS011;11483;55.828;37.488;2022-09-13T20:28:29;7.57;;;4.05;;
22632;SDS011;11483;55.828;37.488;2022-09-13T20:30:56;10.27;;;4.75;;
22632;SDS011;11483;55.828;37.488;2022-09-13T20:33:26;9.23;;;4.85;;
22632;SDS011;11483;55.828;37.488;2022-09-13T20:35:52;7.20;;;4.22;;
22632;SDS011;11483;55.828;37.488;2022-09-13T20:38:18;12.85;;;4.47;;
22632;SDS011;11483;55.828;37.488;2022-09-13T20:40:45;7.32;;;4.15;;